Time;durP1;ratioP1;P1;durP2;ratioP2;P2;SDS_P1;SDS_P2;PMS_P1;PMS_P2;Temp;Humidity;BMP_temperature;BMP_pressure;BME280_temperature;BME280_humidity;BME280_pressure;Samples;Min_cycle;Max_cycle;Signal;HPM_P1;HPM_P2
2022/11/24 00:00:47;;;;;;;24.17;9.45;;;7.00;99.90;;;;;;5011765;28;20483;-72
2022/11/24 00:03:12;;;;;;;33.35;10.07;;;6.90;99.90;;;;;;5011680;28;20381;-71
2022/11/24 00:05:38;;;;;;;27.38;8.80;;;6.90;99.90;;;;;;5012004;28;20385;-72
2022/11/24 00:08:04;;;;;;;26.02;9.35;;;6.90;99.90;;;;;;5012806;28;20426;-74
2022/11/24 00:10:29;;;;;;;23.95;9.95;;;6.90;99.90;;;;;;5012471;28;20392;-73
2022/11/24 00:12:55;;;;;;;33.40;10.50;;;6.80;99.90;;;;;;5011455;28;20941;-72
2022/11/24 00:15:20;;;;;;;27.60;10.63;;;6.80;99.90;;;;;;5011727;28;20420;-73
2022/11/24 00:17:46;;;;;;;28.27;8.95;;;6.80;99.90;;;;;;5011269;28;20723;-72
2022/11/24 00:20:11;;;;;;;27.27;10.30;;;6.80;99.90;;;;;;5011584;28;20449;-73
2022/11/24 00:22:37;;;;;;;26.70;10.37;;;6.80;99.90;;;;;;5011299;28;20385;-72
2022/11/24 00:25:03;;;;;;;29.70;9.30;;;6.80;99.90;;;;;;5011118;28;21012;-71
2022/11/24 00:27:28;;;;;;;30.67;9.10;;;6.80;99.90;;;;;;5011097;28;20389;-71
2022/11/24 00:29:54;;;;;;;29.40;9.93;;;6.90;99.90;;;;;;5009526;28;20389;-73
2022/11/24 00:32:19;;;;;;;33.40;9.60;;;6.90;99.90;;;;;;5011092;28;20388;-72
2022/11/24 00:34:46;;;;;;;33.63;9.73;;;6.90;99.90;;;;;;5011299;28;20416;-72
2022/11/24 00:37:11;;;;;;;34.60;9.82;;;6.90;99.90;;;;;;5009874;28;20876;-72
2022/11/24 00:39:37;;;;;;;28.55;9.82;;;6.90;99.90;;;;;;5011253;28;20392;-73
2022/11/24 00:42:02;;;;;;;27.65;9.68;;;6.90;99.90;;;;;;5010919;28;20391;-72
2022/11/24 00:44:28;;;;;;;27.20;9.50;;;6.80;99.90;;;;;;5009907;28;20486;-72
2022/11/24 00:46:53;;;;;;;32.93;10.27;;;6.80;99.90;;;;;;5011296;28;20762;-72
2022/11/24 00:49:19;;;;;;;25.67;8.80;;;6.80;99.90;;;;;;5011447;28;20750;-72
2022/11/24 00:51:45;;;;;;;30.10;9.67;;;6.80;99.90;;;;;;5011039;28;20394;-72
2022/11/24 00:54:10;;;;;;;27.70;9.20;;;6.80;99.90;;;;;;5011448;28;20407;-72
2022/11/24 00:56:36;;;;;;;30.40;9.65;;;6.80;99.90;;;;;;5011249;28;20905;-72
2022/11/24 00:59:02;;;;;;;32.75;9.63;;;6.80;99.90;;;;;;5011271;28;20476;-72
2022/11/24 01:01:29;;;;;;;33.53;9.10;;;6.90;99.90;;;;;;5009536;28;20393;-72
2022/11/24 01:03:57;;;;;;;27.38;8.80;;;6.90;99.90;;;;;;5011518;28;20464;-73
2022/11/24 01:06:25;;;;;;;23.77;8.82;;;7.00;99.90;;;;;;5011129;28;20399;-72
2022/11/24 01:08:52;;;;;;;27.70;8.70;;;6.90;99.90;;;;;;5011296;28;20384;-72
2022/11/24 01:11:26;;;;;;;25.42;8.43;;;6.90;99.90;;;;;;5011025;28;20401;-73
2022/11/24 01:13:55;;;;;;;24.88;8.98;;;6.90;99.90;;;;;;5011107;28;20447;-73
2022/11/24 01:16:21;;;;;;;28.05;8.45;;;6.90;99.90;;;;;;5011102;28;20413;-73
2022/11/24 01:18:47;;;;;;;37.17;9.20;;;7.00;99.90;;;;;;5011036;28;20943;-72
2022/11/24 01:21:14;;;;;;;32.97;8.38;;;7.00;99.90;;;;;;5011046;28;20385;-72
2022/11/24 01:23:40;;;;;;;28.57;8.67;;;7.00;99.90;;;;;;5011572;28;20431;-71
2022/11/24 01:26:12;;;;;;;26.92;8.68;;;7.10;99.90;;;;;;5011946;28;20785;-73
2022/11/24 01:28:37;;;;;;;27.88;8.60;;;7.20;99.90;;;;;;5014916;28;20385;-73
2022/11/24 01:31:05;;;;;;;35.00;8.20;;;7.30;99.90;;;;;;5022024;28;20477;-72
2022/11/24 01:33:32;;;;;;;30.15;8.02;;;7.40;99.90;;;;;;5023919;28;20446;-72
2022/11/24 01:35:58;;;;;;;24.45;7.68;;;7.50;99.90;;;;;;5018212;28;20419;-73
2022/11/24 01:38:25;;;;;;;33.45;7.82;;;7.50;99.90;;;;;;5023027;28;20385;-71
2022/11/24 01:41:12;;;;;;;28.95;8.07;;;7.60;99.90;;;;;;5030923;28;20400;-71
2022/11/24 01:43:38;;;;;;;28.80;7.30;;;7.60;99.90;;;;;;5023584;28;20443;-72
2022/11/24 01:46:24;;;;;;;21.00;6.53;;;7.60;99.90;;;;;;5014926;28;20547;-71
2022/11/24 01:49:07;;;;;;;32.65;6.93;;;7.70;99.90;;;;;;5013907;28;20381;-70
2022/11/24 01:51:37;;;;;;;29.38;7.25;;;7.70;99.90;;;;;;5013961;28;20454;-73
2022/11/24 01:54:12;;;;;;;27.58;7.72;;;7.70;99.90;;;;;;5013845;28;20432;-73
2022/11/24 01:56:40;;;;;;;29.20;8.35;;;7.80;99.90;;;;;;5013937;28;20669;-73
2022/11/24 01:59:11;;;;;;;23.83;7.22;;;7.80;99.90;;;;;;5013939;28;20414;-73
2022/11/24 02:01:36;;;;;;;26.05;6.38;;;7.80;99.90;;;;;;5013639;28;20451;-72
2022/11/24 02:04:06;;;;;;;24.00;7.60;;;7.90;99.90;;;;;;5013740;28;20388;-71
2022/11/24 02:06:34;;;;;;;23.48;7.18;;;7.80;99.90;;;;;;5013686;28;20381;-73
2022/11/24 02:09:05;;;;;;;22.67;7.22;;;7.80;99.90;;;;;;5013805;28;20877;-72
2022/11/24 02:11:35;;;;;;;30.83;7.10;;;7.80;99.90;;;;;;5013536;28;20413;-73
2022/11/24 02:14:04;;;;;;;31.08;7.72;;;7.70;99.90;;;;;;5015062;28;20388;-72
2022/11/24 02:16:31;;;;;;;25.73;7.13;;;7.70;99.90;;;;;;5015421;28;20420;-72
2022/11/24 02:18:57;;;;;;;25.73;6.35;;;7.70;99.90;;;;;;5015496;28;20897;-72
2022/11/24 02:21:22;;;;;;;27.00;7.43;;;7.90;99.90;;;;;;5014572;28;20388;-71
2022/11/24 02:24:08;;;;;;;27.93;6.57;;;7.90;99.90;;;;;;5012422;28;20404;-72
2022/11/24 02:26:44;;;;;;;27.67;7.00;;;7.90;99.90;;;;;;5013528;28;20396;-73
2022/11/24 02:29:11;;;;;;;26.13;6.63;;;8.00;99.90;;;;;;5013436;28;20389;-73
2022/11/24 02:31:42;;;;;;;25.48;6.55;;;8.10;99.90;;;;;;5013494;28;20389;-72
2022/11/24 02:34:07;;;;;;;28.05;6.60;;;8.10;99.90;;;;;;5011788;28;20400;-73
2022/11/24 02:36:33;;;;;;;32.37;7.40;;;8.20;99.90;;;;;;5013046;28;20420;-72
2022/11/24 02:38:58;;;;;;;26.70;5.77;;;8.30;99.90;;;;;;5013173;28;20384;-72
2022/11/24 02:41:26;;;;;;;23.90;6.90;;;8.40;99.90;;;;;;5011737;28;20459;-74
2022/11/24 02:43:57;;;;;;;28.08;7.22;;;8.40;99.90;;;;;;5013350;28;20464;-72
2022/11/24 02:46:22;;;;;;;28.00;6.40;;;8.40;99.90;;;;;;5025773;23;20476;-76
2022/11/24 02:48:48;;;;;;;31.70;7.23;;;8.40;99.90;;;;;;5013328;28;20420;-76
2022/11/24 02:51:14;;;;;;;28.57;6.73;;;8.40;99.90;;;;;;5013778;28;20858;-75
2022/11/24 02:53:39;;;;;;;19.63;5.05;;;8.50;99.90;;;;;;5012425;28;20388;-76
2022/11/24 02:56:05;;;;;;;27.10;6.40;;;8.40;99.90;;;;;;5013528;28;20499;-77
2022/11/24 02:58:31;;;;;;;30.20;7.18;;;8.40;99.90;;;;;;5012512;28;20397;-76
2022/11/24 03:00:56;;;;;;;17.55;5.45;;;8.40;99.90;;;;;;5013944;28;20435;-76
2022/11/24 03:03:23;;;;;;;21.10;6.40;;;8.40;99.90;;;;;;5020506;28;20377;-76
2022/11/24 03:05:48;;;;;;;29.98;6.68;;;8.40;99.90;;;;;;5036975;28;20431;-75
2022/11/24 03:08:14;;;;;;;18.70;5.72;;;8.30;99.90;;;;;;5035511;28;20401;-75
2022/11/24 03:10:40;;;;;;;24.38;6.45;;;8.20;99.90;;;;;;5018948;28;20892;-75
2022/11/24 03:13:05;;;;;;;22.02;5.80;;;8.20;99.90;;;;;;5014404;28;20400;-75
2022/11/24 03:15:31;;;;;;;31.73;6.63;;;8.20;99.90;;;;;;5013705;28;20512;-75
2022/11/24 03:17:56;;;;;;;26.20;5.93;;;8.10;99.90;;;;;;5013773;28;20385;-75
2022/11/24 03:20:23;;;;;;;27.85;6.03;;;8.10;99.90;;;;;;5013246;28;20578;-76
2022/11/24 03:22:48;;;;;;;26.38;6.18;;;8.00;99.90;;;;;;5012903;28;20929;-75
2022/11/24 03:25:14;;;;;;;22.70;5.77;;;8.00;99.90;;;;;;5011921;28;20463;-75
2022/11/24 03:27:39;;;;;;;20.70;5.50;;;8.00;99.90;;;;;;5013503;28;20400;-76
2022/11/24 03:30:05;;;;;;;24.90;6.07;;;8.00;99.90;;;;;;5012048;28;20393;-75
2022/11/24 03:32:31;;;;;;;24.02;6.30;;;8.00;99.90;;;;;;5013662;28;20396;-75
2022/11/24 03:34:57;;;;;;;28.20;6.20;;;8.00;99.90;;;;;;5012526;28;20408;-76
2022/11/24 03:37:22;;;;;;;22.52;6.00;;;8.00;99.90;;;;;;5013479;28;20431;-75
2022/11/24 03:39:48;;;;;;;27.15;6.30;;;8.00;99.90;;;;;;5013404;28;20511;-76
2022/11/24 03:42:14;;;;;;;31.75;5.97;;;8.00;99.90;;;;;;5014734;28;20695;-75
2022/11/24 03:44:39;;;;;;;26.17;6.05;;;8.10;99.90;;;;;;5016353;28;20393;-75
2022/11/24 03:47:05;;;;;;;28.13;6.30;;;8.10;99.90;;;;;;5019524;28;20451;-75
2022/11/24 03:49:30;;;;;;;30.98;6.13;;;8.10;99.90;;;;;;5024437;28;20406;-76
2022/11/24 03:51:56;;;;;;;25.52;6.50;;;8.10;99.90;;;;;;5018592;28;20388;-75
2022/11/24 03:54:22;;;;;;;21.17;5.93;;;8.10;99.90;;;;;;5017499;28;20393;-76
2022/11/24 03:56:47;;;;;;;26.17;6.38;;;8.20;99.90;;;;;;5014414;28;20408;-76
2022/11/24 03:59:13;;;;;;;22.80;5.90;;;8.20;99.90;;;;;;5022436;28;20392;-76
2022/11/24 04:01:38;;;;;;;21.55;5.28;;;8.20;99.90;;;;;;5024964;28;20487;-75
2022/11/24 04:04:04;;;;;;;23.20;5.60;;;8.30;99.90;;;;;;5020375;28;20388;-75
2022/11/24 04:06:29;;;;;;;21.25;5.88;;;8.30;99.90;;;;;;5017976;28;20435;-75
2022/11/24 04:08:55;;;;;;;25.02;6.18;;;8.40;99.90;;;;;;5017191;28;20389;-76
2022/11/24 04:14:05;;;;;;;31.45;5.72;;;8.50;99.90;;;;;;5012773;28;20416;-76
2022/11/24 04:16:31;;;;;;;21.13;5.60;;;8.50;99.90;;;;;;5011782;28;20456;-76
2022/11/24 04:18:56;;;;;;;25.80;5.90;;;8.50;99.90;;;;;;5012897;28;20553;-77
2022/11/24 04:21:22;;;;;;;23.90;5.80;;;8.60;99.90;;;;;;5011483;28;20385;-76
2022/11/24 04:23:47;;;;;;;27.70;5.90;;;8.60;99.90;;;;;;5012650;28;20768;-75
2022/11/24 04:26:13;;;;;;;24.17;5.70;;;8.70;99.90;;;;;;5012502;28;20880;-76
2022/11/24 04:28:38;;;;;;;20.00;5.95;;;8.60;99.90;;;;;;5012903;28;20447;-76
2022/11/24 04:31:04;;;;;;;22.05;5.57;;;8.60;99.90;;;;;;5011154;28;20396;-76
2022/11/24 04:33:30;;;;;;;35.00;6.40;;;8.70;99.90;;;;;;5012781;28;20531;-77
2022/11/24 04:35:56;;;;;;;25.90;5.57;;;8.80;99.90;;;;;;5012719;28;20405;-75
2022/11/24 04:38:21;;;;;;;27.60;5.60;;;8.80;99.90;;;;;;5013201;28;20476;-76
2022/11/24 04:40:47;;;;;;;36.30;6.50;;;8.80;99.90;;;;;;5022722;28;20385;-77
2022/11/24 04:43:12;;;;;;;27.37;6.00;;;8.90;99.90;;;;;;5022834;28;20400;-76
2022/11/24 04:45:38;;;;;;;36.13;6.78;;;8.90;99.90;;;;;;5021399;28;20387;-76
2022/11/24 04:48:04;;;;;;;29.13;6.00;;;9.00;99.90;;;;;;5021961;28;20483;-75
2022/11/24 04:50:30;;;;;;;26.83;6.90;;;8.90;99.20;;;;;;5022512;28;20419;-77
2022/11/24 04:52:55;;;;;;;27.83;6.43;;;8.90;98.10;;;;;;5021854;28;20389;-76
2022/11/24 04:55:21;;;;;;;31.40;6.83;;;8.80;99.50;;;;;;5024256;28;20409;-76
2022/11/24 04:57:46;;;;;;;32.13;7.10;;;8.90;99.30;;;;;;5023533;28;20425;-76
2022/11/24 05:00:13;;;;;;;38.03;6.90;;;8.90;99.90;;;;;;5025941;28;20384;-76
2022/11/24 05:02:38;;;;;;;32.50;7.03;;;8.90;99.90;;;;;;5025218;28;20490;-75
2022/11/24 05:05:06;;;;;;;30.17;7.80;;;8.90;99.90;;;;;;5023143;28;20388;-76
2022/11/24 05:07:32;;;;;;;33.63;6.93;;;9.00;99.90;;;;;;5023099;28;20753;-76
2022/11/24 05:12:42;;;;;;;28.08;7.05;;;9.20;95.80;;;;;;5020007;28;20455;-74
2022/11/24 05:15:08;;;;;;;38.65;7.50;;;9.40;94.10;;;;;;5019191;28;20821;-75
2022/11/24 05:17:37;;;;;;;32.65;6.82;;;9.20;93.60;;;;;;5023920;28;20389;-75
2022/11/24 05:20:04;;;;;;;24.87;6.90;;;9.00;96.90;;;;;;5018166;28;20475;-76
2022/11/24 05:22:30;;;;;;;33.65;7.80;;;9.00;98.50;;;;;;5015942;28;20392;-76
2022/11/24 05:24:56;;;;;;;31.50;7.28;;;8.90;99.90;;;;;;5016318;28;20483;-76
2022/11/24 05:27:21;;;;;;;33.13;7.00;;;8.90;99.90;;;;;;5016403;28;20424;-76
2022/11/24 05:29:47;;;;;;;35.28;7.07;;;8.90;99.90;;;;;;5016425;28;20415;-75
2022/11/24 05:32:12;;;;;;;37.05;7.57;;;8.80;99.90;;;;;;5016470;28;20460;-76
2022/11/24 05:34:38;;;;;;;27.95;7.07;;;8.90;99.90;;;;;;5016126;28;20717;-76
2022/11/24 05:37:04;;;;;;;34.33;7.80;;;8.90;99.90;;;;;;5015768;28;20384;-75
2022/11/24 05:39:33;;;;;;;34.45;7.32;;;8.80;99.90;;;;;;5015587;28;20389;-76
2022/11/24 05:42:39;;;;;;;35.80;7.13;;;8.90;99.90;;;;;;5013913;28;20393;-76
2022/11/24 05:44:46;;;;;;;31.77;6.95;;;8.90;99.90;;;;;;5015125;28;20389;-76
2022/11/24 05:47:11;;;;;;;37.17;7.88;;;8.90;98.50;;;;;;5015261;28;20455;-75
2022/11/24 05:49:37;;;;;;;26.67;6.68;;;9.00;97.70;;;;;;5015731;28;20396;-77
2022/11/24 05:52:03;;;;;;;31.25;6.50;;;9.10;91.50;;;;;;5015247;28;20416;-76
2022/11/24 05:54:28;;;;;;;29.48;6.95;;;9.10;90.70;;;;;;5015094;28;20475;-76
2022/11/24 05:56:55;;;;;;;37.35;7.15;;;9.10;90.20;;;;;;5015340;28;20503;-76
2022/11/24 05:59:20;;;;;;;31.70;6.50;;;9.10;90.20;;;;;;5015194;28;20950;-76
2022/11/24 06:01:46;;;;;;;35.43;7.00;;;9.20;89.00;;;;;;5014558;28;20468;-76
2022/11/24 06:04:11;;;;;;;34.73;6.97;;;9.10;89.50;;;;;;5014095;28;20471;-76
2022/11/24 06:06:37;;;;;;;34.53;6.53;;;9.10;89.50;;;;;;5015002;28;20392;-76
2022/11/24 06:09:03;;;;;;;27.23;6.40;;;9.10;89.50;;;;;;5014602;28;20392;-76
2022/11/24 06:11:29;;;;;;;27.80;5.78;;;9.10;90.60;;;;;;5015265;28;20392;-75
2022/11/24 06:13:55;;;;;;;34.72;6.47;;;9.10;90.40;;;;;;5015579;28;20765;-77
2022/11/24 06:16:20;;;;;;;30.13;6.40;;;9.10;90.40;;;;;;5015421;28;20400;-76
2022/11/24 06:18:46;;;;;;;28.25;6.13;;;9.20;86.80;;;;;;5014849;28;20421;-76
2022/11/24 06:21:11;;;;;;;32.50;7.43;;;9.30;84.50;;;;;;5015463;28;20445;-75
2022/11/24 06:23:38;;;;;;;25.93;5.80;;;9.30;83.80;;;;;;5016517;28;20873;-77
2022/11/24 06:26:03;;;;;;;35.10;6.80;;;9.30;84.20;;;;;;5018711;28;20471;-75
2022/11/24 06:28:29;;;;;;;28.70;5.68;;;9.40;81.60;;;;;;5028030;28;20397;-76
2022/11/24 06:30:59;;;;;;;30.23;6.13;;;9.30;83.40;;;;;;5029699;28;20392;-75
2022/11/24 06:33:25;;;;;;;29.27;5.30;;;9.40;80.40;;;;;;5013612;28;20393;-75
2022/11/24 06:35:50;;;;;;;20.23;5.70;;;9.40;79.50;;;;;;5013677;28;20738;-77
2022/11/24 06:38:16;;;;;;;25.30;5.07;;;9.40;77.60;;;;;;5014932;28;20389;-77
2022/11/24 06:40:42;;;;;;;25.40;5.50;;;9.40;78.00;;;;;;5015672;28;20381;-76
2022/11/24 06:43:07;;;;;;;25.70;5.43;;;9.30;77.00;;;;;;5013876;28;20389;-75
2022/11/24 06:45:33;;;;;;;23.50;5.20;;;9.20;76.90;;;;;;5014407;28;20395;-75
2022/11/24 06:47:58;;;;;;;22.03;4.60;;;9.30;76.50;;;;;;5015621;28;20405;-76
2022/11/24 06:50:24;;;;;;;16.17;3.63;;;9.30;73.30;;;;;;5017738;28;20392;-75
2022/11/24 06:52:50;;;;;;;21.10;3.80;;;9.30;71.60;;;;;;5024678;28;20401;-76
2022/11/24 06:55:15;;;;;;;12.50;3.63;;;9.20;72.80;;;;;;5028648;28;20435;-75
2022/11/24 06:57:41;;;;;;;12.82;3.38;;;9.20;70.10;;;;;;5021530;28;20442;-77
2022/11/24 07:00:07;;;;;;;13.53;3.37;;;9.10;70.60;;;;;;5014487;28;20468;-75
2022/11/24 07:02:33;;;;;;;17.23;3.47;;;9.00;71.70;;;;;;5013820;28;20475;-76
2022/11/24 07:04:59;;;;;;;14.30;3.08;;;9.00;74.30;;;;;;5012665;28;20492;-75
2022/11/24 07:07:24;;;;;;;9.80;2.55;;;8.90;73.50;;;;;;5012822;28;20393;-77
2022/11/24 07:09:50;;;;;;;10.10;3.00;;;8.90;70.40;;;;;;5013720;28;20472;-75
2022/11/24 07:12:15;;;;;;;14.50;2.60;;;8.90;70.70;;;;;;5013238;28;20408;-76
2022/11/24 07:14:41;;;;;;;15.02;2.70;;;8.80;71.80;;;;;;5012159;28;20479;-76
2022/11/24 07:17:07;;;;;;;9.30;2.75;;;8.80;71.00;;;;;;5013648;28;20584;-76
2022/11/24 07:19:32;;;;;;;10.02;2.70;;;8.90;71.30;;;;;;5014511;28;20997;-76
2022/11/24 07:21:58;;;;;;;9.52;3.10;;;9.00;69.50;;;;;;5011451;28;20428;-76
2022/11/24 07:24:24;;;;;;;6.55;2.50;;;9.20;68.20;;;;;;5013081;28;20432;-77
2022/11/24 07:26:49;;;;;;;6.22;1.75;;;9.20;67.00;;;;;;5013575;28;20505;-76
2022/11/24 07:29:15;;;;;;;7.25;2.17;;;9.40;65.50;;;;;;5014607;28;20389;-77
2022/11/24 07:31:41;;;;;;;7.95;2.20;;;9.50;64.90;;;;;;5014284;28;20400;-76
2022/11/24 07:34:06;;;;;;;8.50;2.00;;;9.50;62.90;;;;;;5014120;28;20380;-77
2022/11/24 07:36:32;;;;;;;8.63;2.20;;;9.50;62.30;;;;;;5012615;28;20455;-76
2022/11/24 07:38:58;;;;;;;5.60;2.03;;;9.60;62.30;;;;;;5019968;28;20881;-76
2022/11/24 07:41:23;;;;;;;5.53;1.87;;;9.70;61.50;;;;;;5032976;28;20395;-75
2022/11/24 07:43:50;;;;;;;4.87;1.80;;;9.70;60.30;;;;;;5023813;28;20466;-74
2022/11/24 07:46:17;;;;;;;5.97;1.80;;;9.70;60.20;;;;;;5014840;28;20901;-74
2022/11/24 07:48:43;;;;;;;8.77;1.90;;;9.70;59.10;;;;;;5015603;28;20967;-76
2022/11/24 07:51:09;;;;;;;5.20;2.07;;;9.80;58.30;;;;;;5013731;28;20581;-73
2022/11/24 07:53:36;;;;;;;3.15;1.40;;;9.70;59.30;;;;;;5013508;28;20384;-75
2022/11/24 07:56:05;;;;;;;9.70;2.38;;;9.80;57.10;;;;;;5013055;28;20432;-76
2022/11/24 07:58:33;;;;;;;8.32;2.10;;;9.90;57.30;;;;;;5013966;28;20385;-77
2022/11/24 08:00:59;;;;;;;8.32;2.00;;;9.80;57.40;;;;;;5014599;28;20623;-76
2022/11/24 08:03:25;;;;;;;6.97;1.90;;;9.90;57.20;;;;;;5012074;28;20400;-75
2022/11/24 08:05:58;;;;;;;4.97;1.85;;;9.90;57.40;;;;;;5013160;28;20393;-74
2022/11/24 08:08:25;;;;;;;9.48;2.10;;;9.90;57.70;;;;;;4993812;28;20394;-75
2022/11/24 08:10:51;;;;;;;10.82;2.50;;;9.90;58.10;;;;;;4994373;28;20891;-77
2022/11/24 08:13:17;;;;;;;4.85;2.20;;;9.90;57.90;;;;;;5009696;28;20941;-75
2022/11/24 08:15:43;;;;;;;7.18;2.10;;;10.00;57.50;;;;;;5012825;28;20448;-75
2022/11/24 08:18:08;;;;;;;9.98;2.35;;;10.00;57.50;;;;;;5014553;28;20905;-74
2022/11/24 08:20:34;;;;;;;10.70;2.40;;;10.10;56.80;;;;;;5024154;28;20383;-76
2022/11/24 08:23:00;;;;;;;9.90;2.63;;;10.20;58.30;;;;;;5015669;28;20413;-75
2022/11/24 08:25:31;;;;;;;10.05;2.40;;;10.20;57.90;;;;;;5027610;28;20466;-74
2022/11/24 08:27:57;;;;;;;12.73;2.40;;;10.20;57.20;;;;;;5023394;28;20458;-75
2022/11/24 08:30:23;;;;;;;7.85;2.75;;;10.20;58.50;;;;;;5027737;28;20790;-76
2022/11/24 08:32:48;;;;;;;13.23;2.60;;;10.30;57.60;;;;;;5012567;28;20388;-75
2022/11/24 08:35:14;;;;;;;12.33;2.60;;;10.30;58.20;;;;;;5024486;28;20413;-75
2022/11/24 08:37:40;;;;;;;11.07;3.40;;;10.30;57.40;;;;;;5013303;28;20404;-76
2022/11/24 08:40:06;;;;;;;10.93;2.83;;;10.40;58.00;;;;;;5012132;28;20470;-76
2022/11/24 08:42:31;;;;;;;13.43;3.20;;;10.40;58.10;;;;;;5011843;28;20389;-75
2022/11/24 08:44:57;;;;;;;10.73;3.27;;;10.30;58.00;;;;;;5012900;28;20419;-75
2022/11/24 08:47:23;;;;;;;16.10;3.17;;;10.40;58.50;;;;;;5020674;28;20404;-75
2022/11/24 08:49:48;;;;;;;11.60;2.87;;;10.40;57.80;;;;;;5020123;28;20404;-74
2022/11/24 08:52:15;;;;;;;12.10;2.90;;;10.50;58.10;;;;;;5014751;28;20408;-76
2022/11/24 08:54:43;;;;;;;14.65;3.78;;;10.40;57.90;;;;;;5011760;28;20419;-75
2022/11/24 08:57:12;;;;;;;13.57;3.97;;;10.40;58.70;;;;;;5011296;28;20397;-76
2022/11/24 08:59:38;;;;;;;13.70;3.40;;;10.40;58.30;;;;;;4992480;28;20397;-75
2022/11/24 09:02:04;;;;;;;16.63;4.13;;;10.50;59.20;;;;;;4999286;28;20829;-76
2022/11/24 09:04:30;;;;;;;12.18;3.30;;;10.50;58.80;;;;;;5014061;28;20963;-76
2022/11/24 09:06:57;;;;;;;16.97;3.40;;;10.60;58.20;;;;;;5011699;28;20445;-75
2022/11/24 09:09:22;;;;;;;15.45;3.60;;;10.70;57.30;;;;;;5011689;28;20396;-75
2022/11/24 09:11:48;;;;;;;14.70;3.20;;;10.80;56.30;;;;;;5010212;28;20420;-76
2022/11/24 09:14:14;;;;;;;12.23;3.50;;;10.80;56.00;;;;;;5011561;28;20443;-75
2022/11/24 09:16:39;;;;;;;17.23;4.37;;;10.90;56.30;;;;;;5011591;28;20424;-76
2022/11/24 09:19:06;;;;;;;18.37;3.50;;;10.80;55.80;;;;;;5011749;28;20392;-75
2022/11/24 09:21:36;;;;;;;15.25;3.10;;;10.80;55.80;;;;;;5011483;28;20420;-75
2022/11/24 09:24:02;;;;;;;15.30;3.50;;;10.80;56.10;;;;;;5012178;28;20380;-76
2022/11/24 09:26:30;;;;;;;15.52;3.90;;;10.80;55.80;;;;;;5025061;28;20395;-75
2022/11/24 09:28:57;;;;;;;17.23;3.83;;;10.80;57.10;;;;;;5030415;28;20859;-74
2022/11/24 09:31:25;;;;;;;15.80;4.18;;;10.80;57.60;;;;;;5031599;28;20391;-75
2022/11/24 09:33:51;;;;;;;14.35;3.67;;;10.80;55.70;;;;;;5029571;28;20434;-75
2022/11/24 09:36:17;;;;;;;15.68;3.40;;;10.80;54.50;;;;;;5030574;28;20457;-76
2022/11/24 09:38:42;;;;;;;17.40;4.10;;;10.80;56.90;;;;;;5031003;28;20848;-74
2022/11/24 09:41:28;;;;;;;20.03;3.87;;;10.80;57.20;;;;;;5030933;28;20379;-75
2022/11/24 09:44:18;;;;;;;12.80;3.50;;;10.90;54.50;;;;;;5030971;28;20420;-75
2022/11/24 09:46:53;;;;;;;13.10;4.00;;;11.00;53.00;;;;;;5030817;28;20457;-76
2022/11/24 09:49:33;;;;;;;23.60;4.90;;;11.00;53.30;;;;;;5031062;28;20391;-74
2022/11/24 09:52:02;;;;;;;18.65;3.80;;;11.00;54.00;;;;;;5015749;28;20391;-75
2022/11/24 09:54:29;;;;;;;18.42;4.70;;;10.90;54.50;;;;;;5012419;28;20503;-75
2022/11/24 09:56:59;;;;;;;12.17;3.27;;;10.80;55.10;;;;;;5014472;28;20436;-76
2022/11/24 09:59:26;;;;;;;17.60;3.70;;;10.80;54.30;;;;;;5025948;28;20380;-75
2022/11/24 10:01:53;;;;;;;17.63;3.35;;;10.70;55.30;;;;;;5025459;28;20455;-76
2022/11/24 10:04:23;;;;;;;17.50;3.88;;;10.70;56.30;;;;;;5020353;28;20455;-75
2022/11/24 10:06:59;;;;;;;14.55;3.30;;;10.80;56.10;;;;;;5018017;28;20405;-75
2022/11/24 10:09:57;;;;;;;18.02;4.03;;;10.90;54.90;;;;;;5016016;28;20384;-75
2022/11/24 10:12:59;;;;;;;14.07;4.07;;;10.90;53.90;;;;;;5014622;28;20730;-76
2022/11/24 10:15:33;;;;;;;19.55;5.00;;;11.00;53.70;;;;;;5014828;28;20404;-76
2022/11/24 10:18:27;;;;;;;14.10;3.72;;;11.00;54.40;;;;;;5014499;28;20404;-75
2022/11/24 10:21:21;;;;;;;17.10;4.10;;;11.00;53.00;;;;;;5014959;28;20564;-75
2022/11/24 10:24:08;;;;;;;15.32;3.50;;;11.10;53.30;;;;;;5015545;28;20741;-76
2022/11/24 10:26:38;;;;;;;19.85;3.78;;;11.00;52.00;;;;;;5014687;28;20941;-76
2022/11/24 10:29:25;;;;;;;11.30;3.30;;;11.00;52.70;;;;;;5015496;28;20555;-75
2022/11/24 10:31:55;;;;;;;16.45;4.07;;;11.10;52.50;;;;;;5016966;28;20491;-74
2022/11/24 10:34:36;;;;;;;14.85;4.20;;;11.10;52.50;;;;;;5014764;28;20397;-76
2022/11/24 10:37:10;;;;;;;16.25;3.83;;;11.30;52.70;;;;;;5013888;28;20793;-76
2022/11/24 10:40:13;;;;;;;21.33;3.60;;;11.40;51.30;;;;;;5014820;28;20854;-76
2022/11/24 10:42:39;;;;;;;16.65;3.88;;;11.50;50.40;;;;;;5015070;28;20420;-76
2022/11/24 10:45:23;;;;;;;17.15;4.30;;;11.60;50.00;;;;;;5015161;28;20431;-76
2022/11/24 10:47:49;;;;;;;12.85;3.90;;;11.50;49.70;;;;;;5014681;28;20432;-75
2022/11/24 10:50:32;;;;;;;16.25;3.55;;;11.50;48.90;;;;;;5017498;28;20400;-76
2022/11/24 10:53:20;;;;;;;18.42;3.95;;;11.50;48.60;;;;;;5024259;28;20401;-77
2022/11/24 10:55:57;;;;;;;18.15;3.95;;;11.50;48.90;;;;;;5031823;28;20409;-76
2022/11/24 10:58:33;;;;;;;20.95;4.28;;;11.40;50.50;;;;;;5026669;28;20397;-76
2022/11/24 11:01:11;;;;;;;17.88;4.10;;;11.30;51.50;;;;;;5015549;28;20447;-75
2022/11/24 11:03:52;;;;;;;21.67;4.05;;;11.40;50.60;;;;;;5014412;28;20896;-75
2022/11/24 11:06:25;;;;;;;24.00;5.10;;;11.40;50.10;;;;;;5014343;28;20401;-74
2022/11/24 11:09:06;;;;;;;25.50;5.20;;;11.40;51.00;;;;;;5013265;28;20381;-75
2022/11/24 11:11:33;;;;;;;17.50;5.00;;;11.30;50.60;;;;;;5012751;28;20392;-75
2022/11/24 11:14:03;;;;;;;23.52;6.32;;;11.30;50.90;;;;;;5012984;28;20435;-75
2022/11/24 11:16:51;;;;;;;19.08;4.05;;;11.40;51.20;;;;;;5012354;28;20846;-75
2022/11/24 11:19:36;;;;;;;24.88;4.90;;;11.40;50.60;;;;;;5012501;28;20377;-76
2022/11/24 11:22:08;;;;;;;21.42;4.57;;;11.40;50.40;;;;;;5012603;28;20392;-75
2022/11/24 11:24:35;;;;;;;20.90;4.50;;;11.50;49.40;;;;;;5012973;28;20373;-75
2022/11/24 11:27:21;;;;;;;19.80;5.18;;;11.60;49.10;;;;;;5013169;28;20399;-76
2022/11/24 11:29:47;;;;;;;26.88;4.82;;;11.80;48.00;;;;;;5012862;28;20434;-75
2022/11/24 11:32:23;;;;;;;21.92;4.78;;;11.80;49.10;;;;;;5011303;28;20447;-75
2022/11/24 11:34:50;;;;;;;16.83;3.97;;;11.80;49.80;;;;;;5012061;28;20436;-75
2022/11/24 11:37:18;;;;;;;13.60;3.40;;;11.70;49.60;;;;;;5012580;28;20413;-75
2022/11/24 11:39:49;;;;;;;19.58;4.60;;;11.80;47.80;;;;;;5013584;28;20456;-74
2022/11/24 11:42:25;;;;;;;22.30;4.80;;;11.80;47.10;;;;;;5012991;28;20431;-75
2022/11/24 11:45:19;;;;;;;27.42;4.25;;;11.80;48.20;;;;;;5012101;28;20388;-76
2022/11/24 11:47:56;;;;;;;21.23;4.38;;;12.00;48.20;;;;;;5012745;28;20425;-75
2022/11/24 11:50:27;;;;;;;24.83;5.60;;;12.00;46.50;;;;;;5013152;28;20746;-76
2022/11/24 11:53:10;;;;;;;18.50;3.80;;;12.00;46.10;;;;;;5012380;28;20749;-74
2022/11/24 11:55:52;;;;;;;23.00;4.85;;;12.00;45.00;;;;;;5014996;28;20404;-76
2022/11/24 11:58:41;;;;;;;24.95;6.45;;;12.00;44.70;;;;;;5012148;28;20728;-75
2022/11/24 12:01:25;;;;;;;26.90;5.25;;;12.00;45.10;;;;;;5012498;28;20532;-76
2022/11/24 12:04:06;;;;;;;46.50;8.27;;;12.00;44.30;;;;;;5012919;28;20381;-75
2022/11/24 12:07:03;;;;;;;25.30;5.97;;;12.00;45.30;;;;;;5013560;28;20901;-75
2022/11/24 12:09:43;;;;;;;19.77;3.90;;;12.00;46.20;;;;;;5014176;28;20450;-76
2022/11/24 12:12:31;;;;;;;23.63;4.60;;;12.00;45.50;;;;;;5013054;28;20399;-74
2022/11/24 12:15:02;;;;;;;23.52;4.60;;;12.00;45.90;;;;;;5010163;28;20404;-75
2022/11/24 12:17:45;;;;;;;17.02;3.95;;;12.10;45.60;;;;;;5010795;28;20785;-75
2022/11/24 12:20:29;;;;;;;17.75;4.20;;;12.00;44.30;;;;;;5012470;28;20435;-74
2022/11/24 12:23:28;;;;;;;21.10;4.85;;;12.00;46.50;;;;;;5011653;28;20384;-73
2022/11/24 12:26:19;;;;;;;17.85;4.20;;;12.10;45.50;;;;;;4992993;28;20391;-76
2022/11/24 12:29:03;;;;;;;21.92;4.65;;;12.10;44.80;;;;;;5006150;28;20480;-75
2022/11/24 12:31:35;;;;;;;17.15;4.10;;;12.20;44.00;;;;;;5012505;28;20381;-75
2022/11/24 12:34:09;;;;;;;27.75;4.70;;;12.20;43.90;;;;;;5010758;28;20397;-75
2022/11/24 12:37:03;;;;;;;25.33;3.90;;;12.20;43.20;;;;;;5012312;28;20774;-76
2022/11/24 12:40:10;;;;;;;15.07;4.57;;;12.30;42.90;;;;;;5012466;28;20411;-75
2022/11/24 12:42:57;;;;;;;21.13;4.32;;;12.30;44.00;;;;;;5013161;28;20379;-76
2022/11/24 12:45:41;;;;;;;24.67;5.67;;;12.30;44.00;;;;;;5022956;28;20397;-75
2022/11/24 12:48:10;;;;;;;19.10;4.90;;;12.30;44.60;;;;;;5020671;28;20951;-75
2022/11/24 12:50:38;;;;;;;19.92;4.93;;;12.40;43.40;;;;;;5018873;28;20814;-74
2022/11/24 12:53:18;;;;;;;23.35;5.07;;;12.30;43.30;;;;;;5013206;28;20461;-73
2022/11/24 12:55:44;;;;;;;24.88;4.70;;;12.30;42.40;;;;;;5013230;28;20757;-74
2022/11/24 12:58:44;;;;;;;27.60;5.65;;;12.20;42.90;;;;;;5012579;28;20448;-75
2022/11/24 13:01:37;;;;;;;21.73;5.30;;;12.10;44.30;;;;;;5012235;28;20396;-75